Terminal Aerodrome Forecast
Issued by NWS

Home | Current Version | Previous Version | Text Only | Print | Product List | Glossary On
Versions: 1 2 3 4 5 6 7 8 9 10 11 12
000
FTUS42 TJSJ 262320
TAFJMZ
TAF
TJMZ 262320Z 2700/2724 10008KT P6SM VCSH BKN040
     FM271530 26010KT P6SM SCT025 BKN040
     FM272200 08005KT P6SM FEW030 SCT050
      AMD NOT SKED=

USA.gov is the U.S. government's official web portal to all federal, state and local government web resources and services.